Time;durP1;ratioP1;P1;durP2;ratioP2;P2;SDS_P1;SDS_P2;PMS_P1;PMS_P2;Temp;Humidity;BMP_temperature;BMP_pressure;BME280_temperature;BME280_humidity;BME280_pressure;Samples;Min_cycle;Max_cycle;Signal;HPM_P1;HPM_P2
2023/03/12 05:08:30;;;;;;;30.48;17.35;;;2.00;1.00;;;;;;4810248;27;20488;-75
2023/03/12 05:10:57;;;;;;;33.38;18.33;;;2.00;1.00;;;;;;4902082;29;20052;-76
2023/03/12 05:13:26;;;;;;;26.27;16.50;;;1.90;1.00;;;;;;4900739;29;20130;-77
2023/03/12 05:15:57;;;;;;;28.58;18.40;;;1.80;1.00;;;;;;4899501;29;20507;-78
2023/03/12 05:18:25;;;;;;;31.60;18.65;;;1.80;1.00;;;;;;4898315;29;20052;-75
2023/03/12 05:21:01;;;;;;;31.17;18.23;;;1.90;1.00;;;;;;4897822;29;20052;-75
2023/03/12 05:23:33;;;;;;;34.08;20.08;;;1.80;1.00;;;;;;4898813;29;20058;-78
2023/03/12 05:26:01;;;;;;;28.67;17.42;;;1.80;1.00;;;;;;4898761;29;20044;-76
2023/03/12 05:28:29;;;;;;;30.55;19.80;;;1.80;1.00;;;;;;4898969;29;20048;-76
2023/03/12 05:31:01;;;;;;;31.88;20.67;;;1.70;1.00;;;;;;4898338;29;20048;-75
2023/03/12 05:33:29;;;;;;;32.97;19.38;;;1.70;1.00;;;;;;4898925;29;20052;-77
2023/03/12 05:35:59;;;;;;;25.48;16.33;;;1.70;1.00;;;;;;4898600;29;20048;-75
2023/03/12 05:38:28;;;;;;;30.45;16.83;;;1.70;1.00;;;;;;4897603;29;20135;-77
2023/03/12 05:40:58;;;;;;;38.63;23.23;;;1.70;99.90;;;;;;4897396;29;20044;-76
2023/03/12 05:43:28;;;;;;;31.30;18.30;;;1.70;1.00;;;;;;4897996;29;20066;-75
2023/03/12 05:46:00;;;;;;;45.33;26.85;;;1.80;99.90;;;;;;4898717;29;20055;-75
2023/03/12 05:48:28;;;;;;;39.85;24.40;;;2.00;99.90;;;;;;4898278;29;20048;-76
2023/03/12 05:50:56;;;;;;;37.97;22.60;;;2.00;1.00;;;;;;4896979;29;20051;-76
2023/03/12 05:53:24;;;;;;;31.42;21.05;;;2.10;1.00;;;;;;4903704;29;20425;-76
2023/03/12 05:55:53;;;;;;;31.50;19.40;;;2.20;71.10;;;;;;4903043;29;20044;-77
2023/03/12 05:58:22;;;;;;;27.02;17.23;;;2.20;99.90;;;;;;4918687;29;20044;-77
2023/03/12 06:00:50;;;;;;;29.70;16.83;;;2.30;1.00;;;;;;4898906;29;20040;-78
2023/03/12 06:03:18;;;;;;;28.25;15.57;;;2.40;1.00;;;;;;4899526;29;20169;-78
2023/03/12 06:05:46;;;;;;;33.88;17.92;;;2.50;98.50;;;;;;4898348;29;20029;-77
2023/03/12 06:08:15;;;;;;;36.83;19.98;;;2.60;99.90;;;;;;4878213;29;20297;-75
2023/03/12 06:10:50;;;;;;;43.85;23.83;;;2.70;1.00;;;;;;4885908;29;20048;-78
2023/03/12 06:13:18;;;;;;;43.58;23.35;;;2.70;99.90;;;;;;4880462;29;20390;-77
2023/03/12 06:15:47;;;;;;;51.40;26.80;;;2.80;1.00;;;;;;4896183;29;20109;-78
2023/03/12 06:18:15;;;;;;;43.72;22.88;;;2.90;99.90;;;;;;4878829;29;20056;-75
2023/03/12 06:20:43;;;;;;;41.38;22.88;;;3.00;99.90;;;;;;4895525;29;20425;-77
2023/03/12 06:23:11;;;;;;;43.05;24.17;;;3.20;59.70;;;;;;4878597;29;20366;-77
2023/03/12 06:25:39;;;;;;;44.78;22.58;;;3.40;1.00;;;;;;4878921;29;20517;-78
2023/03/12 06:28:06;;;;;;;36.60;21.20;;;3.60;1.00;;;;;;4878740;29;20125;-75
2023/03/12 06:30:34;;;;;;;36.30;20.33;;;3.80;1.00;;;;;;4897285;29;20048;-77
2023/03/12 06:33:06;;;;;;;39.42;22.58;;;4.00;1.00;;;;;;4914967;29;20107;-76
2023/03/12 06:35:34;;;;;;;36.33;20.73;;;4.10;99.90;;;;;;4910054;29;20072;-74
2023/03/12 06:38:01;;;;;;;36.15;20.10;;;4.30;1.00;;;;;;4895872;29;20048;-77
2023/03/12 06:40:29;;;;;;;36.85;19.15;;;4.40;1.00;;;;;;4878527;29;20049;-78
2023/03/12 06:42:56;;;;;;;37.13;20.27;;;4.60;1.00;;;;;;4896161;29;20525;-76
2023/03/12 06:45:24;;;;;;;34.97;19.27;;;4.80;1.00;;;;;;4895701;29;20072;-76
2023/03/12 06:47:51;;;;;;;34.42;17.38;;;5.10;99.90;;;;;;4894589;29;20044;-76
2023/03/12 06:50:20;;;;;;;29.80;15.40;;;5.20;1.00;;;;;;4894069;29;20040;-76
2023/03/12 06:52:48;;;;;;;33.20;17.80;;;5.30;1.00;;;;;;4895621;29;20324;-78
2023/03/12 06:55:16;;;;;;;35.95;18.70;;;5.40;1.00;;;;;;4895398;29;20083;-78
2023/03/12 06:57:43;;;;;;;27.15;15.60;;;5.60;1.00;;;;;;4878564;29;20068;-78
2023/03/12 07:00:12;;;;;;;35.47;17.45;;;5.80;1.00;;;;;;4894402;29;20059;-77
2023/03/12 07:02:41;;;;;;;34.13;17.15;;;6.00;99.90;;;;;;4878152;29;20052;-77
2023/03/12 07:05:10;;;;;;;33.25;18.15;;;6.10;99.90;;;;;;4881569;29;20056;-77
2023/03/12 07:07:38;;;;;;;36.05;14.23;;;6.20;99.90;;;;;;4907947;29;20059;-78
2023/03/12 07:10:06;;;;;;;27.00;14.00;;;6.30;99.90;;;;;;4914591;29;20048;-78
2023/03/12 07:12:34;;;;;;;27.45;14.07;;;6.50;99.90;;;;;;4914291;29;20056;-77
2023/03/12 07:15:01;;;;;;;28.70;15.32;;;6.70;94.80;;;;;;4913671;29;20071;-79
2023/03/12 07:17:29;;;;;;;25.10;13.80;;;6.80;35.30;;;;;;4912380;29;20071;-79
2023/03/12 07:19:56;;;;;;;26.13;14.40;;;7.00;7.50;;;;;;4911660;29;20078;-79
2023/03/12 07:22:25;;;;;;;20.85;11.07;;;7.20;1.00;;;;;;4914344;29;20492;-76
2023/03/12 07:24:53;;;;;;;17.02;9.52;;;7.30;1.00;;;;;;4918087;29;20265;-78
2023/03/12 07:27:21;;;;;;;18.58;9.25;;;7.50;1.00;;;;;;4913320;29;20044;-78
2023/03/12 07:29:48;;;;;;;24.08;12.60;;;7.50;1.00;;;;;;4911344;29;20143;-79
2023/03/12 07:32:16;;;;;;;16.25;8.65;;;7.60;1.00;;;;;;4896798;29;20201;-77
2023/03/12 07:34:43;;;;;;;13.25;7.60;;;7.50;1.00;;;;;;4895856;29;20111;-78
2023/03/12 07:37:11;;;;;;;14.63;7.00;;;7.70;1.00;;;;;;4896835;29;20094;-76
2023/03/12 07:39:38;;;;;;;14.10;5.32;;;7.70;1.00;;;;;;4913390;29;20059;-78
2023/03/12 07:42:07;;;;;;;9.75;5.80;;;7.70;1.00;;;;;;4913958;29;20147;-77
2023/03/12 07:44:38;;;;;;;9.60;5.50;;;7.60;1.00;;;;;;4913355;29;20504;-77
2023/03/12 07:47:06;;;;;;;10.70;5.82;;;7.60;1.00;;;;;;4904023;29;20123;-77
2023/03/12 07:49:33;;;;;;;13.70;5.43;;;7.70;1.00;;;;;;4913233;29;20046;-78
2023/03/12 07:52:03;;;;;;;9.77;5.68;;;7.90;1.00;;;;;;4897226;29;20044;-86
2023/03/12 07:54:36;;;;;;;7.60;5.10;;;8.00;1.00;;;;;;4914921;29;20112;-87
2023/03/12 07:57:08;;;;;;;10.85;5.05;;;8.20;1.00;;;;;;4912731;29;20137;-77
2023/03/12 07:59:35;;;;;;;9.07;4.82;;;8.20;1.00;;;;;;4912533;29;20044;-77
2023/03/12 08:02:03;;;;;;;10.45;5.00;;;7.90;1.00;;;;;;4912873;29;20046;-78
2023/03/12 08:04:30;;;;;;;8.68;5.07;;;7.90;1.00;;;;;;4896228;29;20139;-76
2023/03/12 08:06:57;;;;;;;11.02;6.10;;;8.00;1.00;;;;;;4913565;29;20119;-78
2023/03/12 08:09:25;;;;;;;12.82;7.30;;;8.10;1.00;;;;;;4897171;29;20048;-78
2023/03/12 08:11:54;;;;;;;10.32;5.30;;;8.10;1.00;;;;;;4903029;29;20067;-85
2023/03/12 08:14:25;;;;;;;7.63;4.25;;;8.00;1.00;;;;;;4909934;29;20044;-81
2023/03/12 08:16:52;;;;;;;11.32;4.70;;;8.00;1.00;;;;;;4914992;29;20108;-79
2023/03/12 08:19:20;;;;;;;7.00;4.72;;;8.30;1.00;;;;;;4913890;29;20115;-77
2023/03/12 08:21:47;;;;;;;9.15;4.65;;;8.30;1.00;;;;;;4922915;29;20096;-76
2023/03/12 08:24:15;;;;;;;8.20;4.60;;;8.60;1.00;;;;;;4919897;29;20060;-76
2023/03/12 08:26:42;;;;;;;10.88;7.10;;;8.70;1.00;;;;;;4900513;29;20187;-75
2023/03/12 08:29:10;;;;;;;11.10;5.35;;;9.00;1.00;;;;;;4913360;29;20048;-78
2023/03/12 08:31:39;;;;;;;7.32;4.43;;;9.20;1.00;;;;;;4907182;29;20107;-78
2023/03/12 08:34:07;;;;;;;10.10;2.40;;;9.30;1.00;;;;;;4916048;29;20040;-78
2023/03/12 08:36:36;;;;;;;6.60;2.65;;;9.20;1.00;;;;;;4900253;29;20048;-78
2023/03/12 08:39:03;;;;;;;4.25;2.20;;;9.10;1.00;;;;;;4916364;29;20492;-78
2023/03/12 08:41:31;;;;;;;4.30;1.90;;;9.00;1.00;;;;;;4916587;29;20071;-78
2023/03/12 08:43:58;;;;;;;5.32;2.78;;;9.10;1.00;;;;;;4916175;29;20051;-78
2023/03/12 08:46:26;;;;;;;6.18;3.15;;;9.20;1.00;;;;;;4915819;29;20404;-76
2023/03/12 08:48:55;;;;;;;7.05;2.35;;;9.40;1.00;;;;;;4916429;29;20042;-78
2023/03/12 08:51:22;;;;;;;3.78;1.90;;;9.70;1.00;;;;;;4899012;29;20044;-81
2023/03/12 08:53:50;;;;;;;6.63;2.80;;;9.70;1.00;;;;;;4916748;29;20467;-77
2023/03/12 08:56:18;;;;;;;7.70;2.05;;;9.30;1.00;;;;;;4915659;29;20067;-76
2023/03/12 08:58:45;;;;;;;5.97;2.38;;;9.10;1.00;;;;;;4915739;29;20327;-78
2023/03/12 09:01:13;;;;;;;4.47;2.53;;;9.20;1.00;;;;;;4916047;29;20115;-76
2023/03/12 09:03:41;;;;;;;3.75;2.10;;;9.10;1.00;;;;;;4916597;29;20040;-77
2023/03/12 09:06:15;;;;;;;4.10;2.30;;;9.00;1.00;;;;;;4916678;29;20040;-78
2023/03/12 09:08:43;;;;;;;7.22;2.58;;;9.10;1.00;;;;;;4914628;29;20054;-77
2023/03/12 09:11:12;;;;;;;2.95;1.85;;;9.10;1.00;;;;;;4915167;29;20039;-79
2023/03/12 09:13:40;;;;;;;4.40;2.13;;;9.30;1.00;;;;;;4915736;29;20040;-79
2023/03/12 09:16:09;;;;;;;4.75;2.17;;;9.60;1.00;;;;;;4899717;29;20047;-76
2023/03/12 09:18:36;;;;;;;5.03;1.85;;;9.70;1.00;;;;;;4898328;29;20139;-76
2023/03/12 09:21:05;;;;;;;3.17;1.77;;;9.60;1.00;;;;;;4890181;29;20044;-77
2023/03/12 09:23:34;;;;;;;6.65;2.25;;;9.40;1.00;;;;;;4916741;29;20115;-78
2023/03/12 09:26:02;;;;;;;3.95;2.30;;;9.40;1.00;;;;;;4913898;29;20047;-77
2023/03/12 09:28:30;;;;;;;4.53;2.08;;;9.20;1.00;;;;;;4916394;29;20048;-78
2023/03/12 09:30:57;;;;;;;3.55;2.10;;;8.90;1.00;;;;;;4915590;29;20051;-79
2023/03/12 09:33:24;;;;;;;6.20;2.58;;;8.50;1.00;;;;;;4898813;29;20090;-77
2023/03/12 09:35:57;;;;;;;5.95;3.17;;;8.50;1.00;;;;;;4915272;29;20046;-78
2023/03/12 09:38:25;;;;;;;4.70;2.55;;;8.70;1.00;;;;;;4915287;29;20059;-78
2023/03/12 09:40:55;;;;;;;5.35;3.03;;;8.90;1.00;;;;;;4913111;29;20040;-78
2023/03/12 09:43:29;;;;;;;4.25;2.05;;;9.00;1.00;;;;;;4914746;29;20077;-78
2023/03/12 09:45:57;;;;;;;3.83;2.08;;;8.90;1.00;;;;;;4916038;29;20048;-77
2023/03/12 09:48:32;;;;;;;3.47;1.50;;;8.70;1.00;;;;;;4915390;29;20040;-77
2023/03/12 09:51:05;;;;;;;5.38;2.97;;;8.70;1.00;;;;;;4916138;29;20048;-77
2023/03/12 09:53:36;;;;;;;5.78;3.00;;;8.50;1.00;;;;;;4917414;29;20044;-79
2023/03/12 09:56:09;;;;;;;4.18;2.67;;;8.50;1.00;;;;;;4921081;29;20044;-78
2023/03/12 09:58:38;;;;;;;4.57;2.33;;;8.70;1.00;;;;;;4922811;29;20036;-79
2023/03/12 10:01:18;;;;;;;5.70;2.95;;;8.60;1.00;;;;;;4926014;29;20134;-76
2023/03/12 10:04:03;;;;;;;22.30;13.57;;;8.70;1.00;;;;;;4914584;29;20040;-78
2023/03/12 10:06:35;;;;;;;5.88;2.22;;;8.80;1.00;;;;;;4901592;29;20119;-77
2023/03/12 10:09:22;;;;;;;5.35;2.80;;;8.90;1.00;;;;;;4921967;29;20040;-77
2023/03/12 10:11:58;;;;;;;4.55;2.00;;;8.70;1.00;;;;;;4924005;29;20036;-77
2023/03/12 10:14:38;;;;;;;5.45;2.80;;;8.40;1.00;;;;;;4919780;29;20075;-77
2023/03/12 10:17:28;;;;;;;4.05;2.53;;;8.40;1.00;;;;;;4920732;29;20510;-78
2023/03/12 10:20:27;;;;;;;4.80;2.58;;;8.40;1.00;;;;;;4920302;29;20100;-78
2023/03/12 10:23:01;;;;;;;4.13;2.60;;;8.60;1.00;;;;;;4900637;29;20207;-79
2023/03/12 10:25:36;;;;;;;4.03;2.00;;;8.70;1.00;;;;;;4918646;29;20138;-79
2023/03/12 10:28:15;;;;;;;5.32;3.00;;;8.60;1.00;;;;;;4902666;29;20460;-76
2023/03/12 10:30:50;;;;;;;4.88;2.88;;;8.80;1.00;;;;;;4916817;29;20062;-77
2023/03/12 10:33:19;;;;;;;6.00;2.90;;;9.10;1.00;;;;;;4897172;29;20059;-77
2023/03/12 10:35:47;;;;;;;5.40;2.85;;;9.30;1.00;;;;;;4913974;29;20063;-78
2023/03/12 10:38:17;;;;;;;10.65;4.00;;;9.40;1.00;;;;;;4898175;29;20139;-78
2023/03/12 10:40:45;;;;;;;6.55;3.85;;;9.60;1.00;;;;;;4913654;29;20048;-78
2023/03/12 10:43:14;;;;;;;8.32;3.97;;;9.50;1.00;;;;;;4914862;29;20214;-77
2023/03/12 10:45:48;;;;;;;5.15;2.50;;;9.50;1.00;;;;;;4897519;29;20071;-77
2023/03/12 10:48:20;;;;;;;5.60;2.60;;;9.50;1.00;;;;;;4914452;29;20044;-78
2023/03/12 10:51:02;;;;;;;6.57;3.75;;;9.50;1.00;;;;;;4913900;29;20412;-77
2023/03/12 10:53:32;;;;;;;4.45;2.45;;;9.60;1.00;;;;;;4913676;29;20051;-77
2023/03/12 10:56:02;;;;;;;4.25;2.20;;;9.60;1.00;;;;;;4889929;29;20515;-79
2023/03/12 10:58:36;;;;;;;2.80;1.73;;;9.40;1.00;;;;;;4897165;29;20096;-76
2023/03/12 11:01:06;;;;;;;7.25;3.83;;;9.40;1.00;;;;;;4913565;29;20141;-78
2023/03/12 11:03:34;;;;;;;6.30;3.85;;;9.60;1.00;;;;;;4914731;29;20058;-77
2023/03/12 11:06:03;;;;;;;5.50;3.30;;;9.70;1.00;;;;;;4914508;29;20143;-78
2023/03/12 11:08:32;;;;;;;5.32;2.60;;;9.70;1.00;;;;;;4914022;29;20044;-78
2023/03/12 11:11:01;;;;;;;7.30;3.85;;;9.80;1.00;;;;;;4913810;29;20047;-78
2023/03/12 11:13:32;;;;;;;8.77;4.35;;;9.80;1.00;;;;;;4914595;29;20036;-78
2023/03/12 11:16:01;;;;;;;7.97;4.00;;;9.90;1.00;;;;;;4914220;29;20040;-77
2023/03/12 11:18:36;;;;;;;5.65;3.10;;;9.90;1.00;;;;;;4896971;29;20052;-78
2023/03/12 11:21:19;;;;;;;5.20;3.03;;;9.70;1.00;;;;;;4897014;29;20461;-77
2023/03/12 11:24:06;;;;;;;8.10;2.58;;;9.60;1.00;;;;;;4913972;29;20131;-76
2023/03/12 11:26:37;;;;;;;9.60;2.72;;;9.40;1.00;;;;;;4913573;29;20055;-77
2023/03/12 11:29:13;;;;;;;4.88;2.40;;;9.30;1.00;;;;;;4904182;29;20050;-76
2023/03/12 11:31:46;;;;;;;3.63;2.15;;;9.20;1.00;;;;;;4914286;29;20040;-76
2023/03/12 11:34:21;;;;;;;4.90;2.38;;;8.90;1.00;;;;;;4919562;29;20040;-77
2023/03/12 11:36:56;;;;;;;4.57;2.23;;;8.70;1.00;;;;;;4892294;29;20044;-77
2023/03/12 11:39:33;;;;;;;6.75;2.60;;;8.70;1.00;;;;;;4912780;29;20054;-78
2023/03/12 11:42:17;;;;;;;6.13;3.20;;;8.80;1.00;;;;;;4903940;29;20053;-77
2023/03/12 11:44:55;;;;;;;6.47;3.10;;;8.90;1.00;;;;;;4914082;29;20103;-76
2023/03/12 11:47:35;;;;;;;4.85;2.50;;;8.90;1.00;;;;;;4912532;29;20051;-78
2023/03/12 11:50:15;;;;;;;4.15;2.40;;;8.90;1.00;;;;;;4912324;29;20131;-77
2023/03/12 11:52:57;;;;;;;4.15;2.38;;;8.80;1.00;;;;;;4914434;29;20044;-78
2023/03/12 11:55:42;;;;;;;4.70;2.35;;;8.80;1.00;;;;;;4912596;29;20028;-77
2023/03/12 11:58:30;;;;;;;5.10;2.42;;;8.60;1.00;;;;;;4913885;29;20036;-79
2023/03/12 12:01:08;;;;;;;4.68;2.35;;;8.60;1.00;;;;;;4896083;29;20124;-78
2023/03/12 12:04:00;;;;;;;7.65;2.80;;;8.70;1.00;;;;;;4913279;29;20040;-79
2023/03/12 12:06:36;;;;;;;5.65;2.33;;;8.70;1.00;;;;;;4922916;29;20054;-78
2023/03/12 12:09:13;;;;;;;3.80;2.20;;;8.70;1.00;;;;;;4922207;29;20111;-77
2023/03/12 12:11:53;;;;;;;5.38;2.72;;;8.70;1.00;;;;;;4919697;29;20059;-79
2023/03/12 12:14:35;;;;;;;5.25;2.45;;;8.80;1.00;;;;;;4920369;29;20047;-78
2023/03/12 12:17:13;;;;;;;5.38;2.80;;;8.70;1.00;;;;;;4920061;29;20032;-77
2023/03/12 12:19:58;;;;;;;8.63;3.55;;;8.80;1.00;;;;;;4920183;29;20054;-79
2023/03/12 12:22:36;;;;;;;5.43;2.63;;;8.70;1.00;;;;;;4895024;29;20040;-78
2023/03/12 12:25:24;;;;;;;7.57;3.97;;;8.50;1.00;;;;;;4921434;29;20067;-76
2023/03/12 12:28:08;;;;;;;5.03;2.70;;;8.60;1.00;;;;;;4926640;29;20408;-77
2023/03/12 12:30:49;;;;;;;7.57;3.30;;;8.70;1.00;;;;;;4924834;29;20126;-77
2023/03/12 12:33:30;;;;;;;7.50;3.40;;;8.80;1.00;;;;;;4919466;29;20072;-77
2023/03/12 12:36:00;;;;;;;6.65;3.15;;;8.90;1.00;;;;;;4922119;29;20096;-78
2023/03/12 12:38:33;;;;;;;6.85;2.60;;;9.00;1.00;;;;;;4924802;29;20052;-77
2023/03/12 12:41:06;;;;;;;5.35;2.20;;;9.00;1.00;;;;;;4921776;29;20047;-76
2023/03/12 12:43:38;;;;;;;5.65;2.70;;;8.80;1.00;;;;;;4924241;29;20036;-77
2023/03/12 12:46:09;;;;;;;25.75;12.07;;;8.80;1.00;;;;;;4920278;29;20062;-78
2023/03/12 12:48:40;;;;;;;5.28;2.60;;;8.80;1.00;;;;;;4922083;29;20127;-78
2023/03/12 12:51:10;;;;;;;6.95;2.97;;;8.80;1.00;;;;;;4931973;29;20044;-77
2023/03/12 12:53:44;;;;;;;6.53;2.67;;;8.60;1.00;;;;;;4930978;29;20544;-77
2023/03/12 12:56:20;;;;;;;6.63;3.08;;;8.60;1.00;;;;;;4915892;29;20071;-77
2023/03/12 12:58:56;;;;;;;;;;;8.70;1.00;;;;;;4933790;29;20116;-78
2023/03/12 13:01:24;;;;;;;8.20;3.92;;;8.60;1.00;;;;;;4933999;29;19933;-77
2023/03/12 13:04:00;;;;;;;4.97;2.60;;;8.60;1.00;;;;;;4918348;29;20044;-77
2023/03/12 13:06:29;;;;;;;;;;;8.80;1.00;;;;;;4935510;29;20048;-77
2023/03/12 13:09:12;;;;;;;4.22;2.40;;;8.90;1.00;;;;;;4926647;29;19923;-76
2023/03/12 13:11:43;;;;;;;4.95;2.45;;;9.00;1.00;;;;;;4918509;29;20098;-77
2023/03/12 13:14:38;;;;;;;5.50;2.42;;;9.10;1.00;;;;;;4918925;29;20506;-79
2023/03/12 13:17:29;;;;;;;3.25;2.08;;;9.10;1.00;;;;;;4908804;29;20139;-77
2023/03/12 13:20:22;;;;;;;4.38;2.30;;;9.00;1.00;;;;;;4915516;29;20043;-78
2023/03/12 13:23:06;;;;;;;6.13;3.17;;;9.10;1.00;;;;;;4912612;29;20064;-77
2023/03/12 13:25:58;;;;;;;6.15;3.33;;;9.10;1.00;;;;;;4915284;29;20811;-78
2023/03/12 13:28:36;;;;;;;6.43;3.92;;;9.20;1.00;;;;;;4907817;29;20048;-78
2023/03/12 13:31:35;;;;;;;6.38;2.50;;;9.30;1.00;;;;;;4898354;29;20055;-77
2023/03/12 13:34:41;;;;;;;4.05;2.30;;;9.40;1.00;;;;;;4915204;29;20074;-78
2023/03/12 13:37:46;;;;;;;5.80;3.03;;;9.40;1.00;;;;;;4898991;29;20470;-77
2023/03/12 13:40:52;;;;;;;6.82;4.15;;;9.50;1.00;;;;;;4880847;29;20056;-76
2023/03/12 13:43:40;;;;;;;4.57;2.65;;;9.60;1.00;;;;;;4915507;29;20055;-78
2023/03/12 13:46:20;;;;;;;5.35;2.72;;;9.60;1.00;;;;;;4915422;29;20123;-77
2023/03/12 13:48:49;;;;;;;5.38;2.47;;;9.60;1.00;;;;;;4914638;29;20040;-78
2023/03/12 13:51:19;;;;;;;5.57;2.60;;;9.60;1.00;;;;;;4916904;29;20126;-78
2023/03/12 13:53:50;;;;;;;4.13;2.10;;;9.60;1.00;;;;;;4916616;29;20489;-77
2023/03/12 13:56:25;;;;;;;4.28;2.17;;;9.50;1.00;;;;;;4915941;29;20565;-78
2023/03/12 13:58:57;;;;;;;5.72;2.00;;;9.60;1.00;;;;;;4914717;29;20048;-77
2023/03/12 14:01:29;;;;;;;3.92;2.00;;;9.70;1.00;;;;;;4914881;29;20047;-78
2023/03/12 14:03:59;;;;;;;4.00;2.00;;;9.70;1.00;;;;;;4915482;29;20532;-79
2023/03/12 14:06:30;;;;;;;4.72;2.28;;;9.70;1.00;;;;;;4915289;29;20040;-77
2023/03/12 14:09:17;;;;;;;5.55;2.28;;;9.70;1.00;;;;;;4899002;29;20289;-76
2023/03/12 14:11:56;;;;;;;5.05;2.30;;;9.60;1.00;;;;;;4916721;29;20126;-78
2023/03/12 14:15:13;;;;;;;6.68;3.70;;;9.60;1.00;;;;;;4914645;29;20520;-77
2023/03/12 14:17:43;;;;;;;8.57;4.50;;;9.70;1.00;;;;;;4900732;29;20492;-77
2023/03/12 14:20:15;;;;;;;7.43;3.70;;;9.80;1.00;;;;;;4914442;29;20130;-78
2023/03/12 14:22:48;;;;;;;4.63;3.03;;;9.80;1.00;;;;;;4914808;29;20075;-78
2023/03/12 14:25:21;;;;;;;6.35;2.53;;;9.80;1.00;;;;;;4914384;29;20476;-76
2023/03/12 14:27:50;;;;;;;4.32;2.13;;;9.80;1.00;;;;;;4914817;29;20048;-77
2023/03/12 14:30:23;;;;;;;4.90;2.92;;;9.80;1.00;;;;;;4914396;29;20048;-77
2023/03/12 14:32:53;;;;;;;5.05;2.50;;;9.80;1.00;;;;;;4914998;29;20493;-77
2023/03/12 14:35:24;;;;;;;5.00;2.78;;;9.90;1.00;;;;;;4897686;29;20107;-77
2023/03/12 14:37:58;;;;;;;5.22;2.80;;;9.90;1.00;;;;;;4915311;29;20047;-78
2023/03/12 14:40:38;;;;;;;7.22;2.42;;;9.90;1.00;;;;;;4913666;29;20131;-78
2023/03/12 14:43:23;;;;;;;5.03;2.85;;;9.70;1.00;;;;;;4912090;29;20091;-78
2023/03/12 14:45:54;;;;;;;7.75;3.97;;;9.60;1.00;;;;;;4901070;29;20139;-77
2023/03/12 14:48:23;;;;;;;7.07;3.60;;;9.70;1.00;;;;;;4924233;29;20056;-80
2023/03/12 14:50:51;;;;;;;4.95;2.60;;;9.80;1.00;;;;;;4897259;29;20040;-77
2023/03/12 14:53:23;;;;;;;6.47;3.53;;;9.80;1.00;;;;;;4897416;29;20509;-79
2023/03/12 14:56:06;;;;;;;6.40;3.50;;;9.70;1.00;;;;;;4909576;29;20044;-77
2023/03/12 14:58:36;;;;;;;5.47;2.30;;;9.70;1.00;;;;;;4916989;29;20036;-78
2023/03/12 15:01:08;;;;;;;5.05;3.03;;;9.60;1.00;;;;;;4917143;29;20040;-77
2023/03/12 15:03:43;;;;;;;9.55;3.33;;;9.60;1.00;;;;;;4899238;29;20072;-77
2023/03/12 15:06:22;;;;;;;6.10;3.50;;;9.60;1.00;;;;;;4915749;29;20051;-78
2023/03/12 15:08:50;;;;;;;5.28;2.60;;;9.60;1.00;;;;;;4908443;29;20427;-76
2023/03/12 15:11:22;;;;;;;4.35;2.45;;;9.60;1.00;;;;;;4904363;29;20052;-76
2023/03/12 15:13:52;;;;;;;5.95;3.03;;;9.60;1.00;;;;;;4913633;29;20609;-78
2023/03/12 15:16:21;;;;;;;7.30;3.40;;;9.60;1.00;;;;;;4896527;29;20408;-78
2023/03/12 15:18:49;;;;;;;5.20;2.60;;;9.60;1.00;;;;;;4913215;29;20055;-79
2023/03/12 15:21:17;;;;;;;6.22;2.90;;;9.60;1.00;;;;;;4913712;29;20481;-77
2023/03/12 15:23:46;;;;;;;5.63;2.80;;;9.60;1.00;;;;;;4896732;29;20036;-78
2023/03/12 15:26:26;;;;;;;5.40;2.67;;;9.60;1.00;;;;;;4895968;29;20056;-78
2023/03/12 15:28:59;;;;;;;6.18;2.70;;;9.50;1.00;;;;;;4896724;29;20055;-78
2023/03/12 15:31:27;;;;;;;6.43;3.70;;;9.60;1.00;;;;;;4917258;29;20044;-79
2023/03/12 15:34:03;;;;;;;6.90;3.75;;;9.60;1.00;;;;;;4901251;29;20075;-77
2023/03/12 15:36:32;;;;;;;6.22;2.53;;;9.50;1.00;;;;;;4918066;29;20062;-78
2023/03/12 15:39:04;;;;;;;12.35;4.63;;;9.50;1.00;;;;;;4901498;29;20044;-80
2023/03/12 15:41:47;;;;;;;12.45;5.20;;;9.40;1.00;;;;;;4918156;29;20040;-78
2023/03/12 15:44:24;;;;;;;6.72;3.50;;;9.40;1.00;;;;;;4901620;29;20052;-80
2023/03/12 15:46:54;;;;;;;45.47;25.33;;;9.30;1.00;;;;;;4929619;29;20090;-77
2023/03/12 15:49:25;;;;;;;10.82;5.88;;;9.30;1.00;;;;;;4924423;29;20126;-78
2023/03/12 15:52:02;;;;;;;11.02;5.85;;;9.20;1.00;;;;;;4905759;29;20147;-78
2023/03/12 15:54:31;;;;;;;9.85;4.07;;;9.20;1.00;;;;;;4913463;29;20051;-77
2023/03/12 15:57:23;;;;;;;7.30;3.80;;;9.20;1.00;;;;;;4913630;29;20507;-76
2023/03/12 16:00:14;;;;;;;5.93;3.45;;;9.10;1.00;;;;;;4886843;29;20052;-77
2023/03/12 16:02:51;;;;;;;9.38;4.60;;;9.10;1.00;;;;;;4912779;29;20051;-77
2023/03/12 16:05:20;;;;;;;9.38;4.28;;;9.00;1.00;;;;;;4912360;29;20352;-79
2023/03/12 16:07:48;;;;;;;13.43;5.88;;;8.90;1.00;;;;;;4883582;29;20048;-77
2023/03/12 16:10:17;;;;;;;11.20;5.25;;;8.80;1.00;;;;;;4892531;29;20500;-78
2023/03/12 16:12:45;;;;;;;13.95;6.85;;;8.80;1.00;;;;;;4893932;29;20052;-77
2023/03/12 16:15:18;;;;;;;11.55;5.97;;;8.70;1.00;;;;;;4892646;29;20585;-76
2023/03/12 16:17:46;;;;;;;5.90;3.35;;;8.60;1.00;;;;;;4893735;29;20051;-76
2023/03/12 16:20:16;;;;;;;13.18;6.47;;;8.50;1.00;;;;;;4877276;29;20044;-77
2023/03/12 16:22:44;;;;;;;22.27;9.02;;;8.40;1.00;;;;;;4892892;29;20140;-78
2023/03/12 16:25:12;;;;;;;6.53;3.00;;;8.30;1.00;;;;;;4893074;29;20060;-76
2023/03/12 16:27:48;;;;;;;9.27;4.10;;;8.20;1.00;;;;;;4877297;29;20146;-76
2023/03/12 16:30:20;;;;;;;11.80;5.72;;;8.10;1.00;;;;;;4876105;29;20471;-77
2023/03/12 16:32:48;;;;;;;4.38;2.33;;;8.00;1.00;;;;;;4893706;29;20045;-76
2023/03/12 16:35:17;;;;;;;5.28;2.67;;;7.90;1.00;;;;;;4876128;29;20048;-77
2023/03/12 16:37:45;;;;;;;33.53;18.85;;;7.90;1.00;;;;;;4876332;29;20044;-75
2023/03/12 16:40:14;;;;;;;21.50;11.02;;;7.80;1.00;;;;;;4892604;29;20036;-75
2023/03/12 16:42:45;;;;;;;22.13;12.52;;;7.70;1.00;;;;;;4892998;29;20047;-78
2023/03/12 16:45:14;;;;;;;12.48;6.50;;;7.70;1.00;;;;;;4875573;29;20429;-76
2023/03/12 16:47:44;;;;;;;27.23;14.30;;;7.60;1.00;;;;;;4893835;29;20409;-77
2023/03/12 16:50:15;;;;;;;27.30;16.77;;;7.60;1.00;;;;;;4876080;29;20504;-76
2023/03/12 16:52:45;;;;;;;24.85;14.98;;;7.50;1.00;;;;;;4896579;29;20097;-78
2023/03/12 16:55:13;;;;;;;17.15;9.27;;;7.30;1.00;;;;;;4896773;29;20040;-77
2023/03/12 16:57:44;;;;;;;26.95;15.55;;;7.20;1.00;;;;;;4880561;29;20088;-78
2023/03/12 17:00:15;;;;;;;145.73;81.15;;;7.10;1.00;;;;;;4879899;29;20131;-78
2023/03/12 17:02:44;;;;;;;108.55;55.88;;;7.00;1.00;;;;;;4865303;29;20044;-77
2023/03/12 17:05:12;;;;;;;76.93;40.60;;;6.90;1.00;;;;;;4897876;29;20481;-78
2023/03/12 17:07:40;;;;;;;37.25;21.25;;;6.90;1.00;;;;;;4909831;29;20056;-77
2023/03/12 17:10:09;;;;;;;36.40;19.63;;;6.70;1.00;;;;;;4902828;29;20108;-76
2023/03/12 17:12:38;;;;;;;52.38;29.45;;;6.60;1.00;;;;;;4916990;29;20044;-78
2023/03/12 17:15:11;;;;;;;162.35;87.45;;;6.50;1.00;;;;;;4898160;29;20396;-76
2023/03/12 17:17:39;;;;;;;193.65;100.40;;;6.40;1.00;;;;;;4899040;29;20076;-77
2023/03/12 17:20:12;;;;;;;161.98;81.88;;;6.30;1.00;;;;;;4898301;29;20048;-77
2023/03/12 17:22:40;;;;;;;141.00;75.93;;;6.20;1.00;;;;;;4914464;29;20044;-75
2023/03/12 17:25:14;;;;;;;177.43;90.90;;;6.10;1.00;;;;;;4915132;29;20127;-79
2023/03/12 17:27:42;;;;;;;180.05;98.03;;;6.00;1.00;;;;;;4915432;29;20054;-76
2023/03/12 17:30:11;;;;;;;195.45;102.63;;;5.90;1.00;;;;;;4915939;29;20051;-76
2023/03/12 17:32:38;;;;;;;182.27;97.78;;;5.90;1.00;;;;;;4898440;29;20139;-76
2023/03/12 17:35:08;;;;;;;170.43;96.07;;;5.80;1.00;;;;;;4915882;29;20044;-74
2023/03/12 17:37:36;;;;;;;187.32;100.75;;;5.70;1.00;;;;;;4915593;29;20697;-77
2023/03/12 17:40:08;;;;;;;180.55;99.22;;;5.60;1.00;;;;;;4898340;29;20047;-76
2023/03/12 17:42:36;;;;;;;169.38;92.70;;;5.50;1.00;;;;;;4915963;29;20120;-76
2023/03/12 17:45:05;;;;;;;170.32;89.47;;;5.50;1.00;;;;;;4897060;29;20067;-75
2023/03/12 17:47:32;;;;;;;179.32;97.82;;;5.50;1.00;;;;;;4915119;29;20047;-76
2023/03/12 17:50:00;;;;;;;190.02;104.28;;;5.40;1.00;;;;;;4915034;29;20044;-76
2023/03/12 17:52:30;;;;;;;196.75;106.43;;;5.30;1.00;;;;;;4920548;29;20445;-75
2023/03/12 17:54:59;;;;;;;170.45;91.80;;;5.20;1.00;;;;;;4905366;29;20059;-76
2023/03/12 17:57:27;;;;;;;198.57;104.70;;;5.20;1.00;;;;;;4920773;29;20040;-76
2023/03/12 17:59:54;;;;;;;190.85;100.32;;;5.20;1.00;;;;;;4918289;29;20044;-77
2023/03/12 18:02:21;;;;;;;186.48;97.90;;;5.20;1.00;;;;;;4899041;29;20087;-76
2023/03/12 18:04:49;;;;;;;228.95;117.32;;;5.20;1.00;;;;;;4915693;29;20044;-78
2023/03/12 18:07:17;;;;;;;229.40;125.45;;;5.20;99.90;;;;;;4915465;29;20056;-75
2023/03/12 18:09:45;;;;;;;224.60;119.78;;;5.10;99.90;;;;;;4915189;29;20079;-77
2023/03/12 18:12:13;;;;;;;238.80;129.55;;;5.10;99.90;;;;;;4898441;29;20048;-76
2023/03/12 18:14:40;;;;;;;197.98;113.47;;;4.90;1.00;;;;;;4897545;29;20523;-78
2023/03/12 18:17:08;;;;;;;171.68;103.60;;;4.90;1.00;;;;;;4898058;29;20121;-77
2023/03/12 18:19:35;;;;;;;150.00;92.43;;;4.80;99.90;;;;;;4914363;29;20063;-76
2023/03/12 18:22:03;;;;;;;149.50;86.72;;;4.80;99.90;;;;;;4897061;29;20596;-78
2023/03/12 18:24:30;;;;;;;146.73;87.13;;;4.80;99.90;;;;;;4897682;29;20074;-77
2023/03/12 18:26:59;;;;;;;145.43;82.63;;;4.70;99.90;;;;;;4897839;29;20044;-77
2023/03/12 18:29:27;;;;;;;104.68;63.72;;;4.60;1.00;;;;;;4914119;29;20048;-77
2023/03/12 18:31:55;;;;;;;113.05;66.90;;;4.60;1.00;;;;;;4915165;29;20130;-75